Time;durP1;ratioP1;P1;durP2;ratioP2;P2;SDS_P1;SDS_P2;PMS_P1;PMS_P2;Temp;Humidity;BMP_temperature;BMP_pressure;BME280_temperature;BME280_humidity;BME280_pressure;Samples;Min_cycle;Max_cycle;Signal;HPM_P1;HPM_P2
2023/10/16 00:02:16;;;;;;;4.38;1.33;;;14.90;1.00;;;;;;6180249;23;20452;-29
2023/10/16 00:04:45;;;;;;;6.15;1.30;;;15.10;1.00;;;;;;6154927;23;20060;-29
2023/10/16 00:07:13;;;;;;;3.85;1.00;;;14.80;1.00;;;;;;6181570;23;20109;-29
2023/10/16 00:09:40;;;;;;;4.10;0.90;;;15.10;1.00;;;;;;6154997;23;20013;-29
2023/10/16 00:12:06;;;;;;;8.02;1.55;;;15.00;1.00;;;;;;6180294;23;20431;-29
2023/10/16 00:14:32;;;;;;;5.70;1.10;;;15.80;1.00;;;;;;6177566;23;20040;-28
2023/10/16 00:16:57;;;;;;;3.45;1.00;;;14.90;1.00;;;;;;6181355;23;20446;-29
2023/10/16 00:19:26;;;;;;;4.35;1.02;;;15.20;1.00;;;;;;6181217;23;20950;-28
2023/10/16 00:21:57;;;;;;;6.55;1.23;;;15.30;1.00;;;;;;6155631;23;20017;-29
2023/10/16 00:24:23;;;;;;;5.78;1.42;;;15.10;1.00;;;;;;6180682;23;20091;-28
2023/10/16 00:26:51;;;;;;;5.55;1.30;;;15.10;1.00;;;;;;6181599;23;20039;-28
2023/10/16 00:29:23;;;;;;;6.25;1.48;;;14.90;1.00;;;;;;6181110;23;20031;-28
2023/10/16 00:31:52;;;;;;;6.95;1.00;;;14.90;1.00;;;;;;6181343;23;20075;-28
2023/10/16 00:34:21;;;;;;;4.00;1.13;;;15.90;1.00;;;;;;6136036;23;1074799;-28
2023/10/16 00:36:47;;;;;;;4.20;1.00;;;;;;;;;;6181803;23;20017;-29
2023/10/16 00:39:13;;;;;;;3.80;0.80;;;14.90;1.00;;;;;;6182637;23;20009;-29
2023/10/16 00:41:40;;;;;;;4.32;1.00;;;15.20;1.00;;;;;;6180941;23;20024;-28
2023/10/16 00:44:06;;;;;;;6.70;1.73;;;15.20;1.00;;;;;;6155779;23;20028;-30
2023/10/16 00:46:36;;;;;;;6.45;1.15;;;;;;;;;;6182480;23;20012;-30
2023/10/16 00:49:06;;;;;;;5.10;0.93;;;15.10;1.00;;;;;;6181170;23;20025;-29
2023/10/16 00:51:40;;;;;;;5.72;0.90;;;15.50;1.00;;;;;;6181830;23;20027;-28
2023/10/16 00:54:30;;;;;;;5.97;1.02;;;;;;;;;;6181901;23;20005;-29
2023/10/16 00:57:00;;;;;;;4.28;1.00;;;15.00;1.00;;;;;;6180896;23;20017;-28
2023/10/16 00:59:26;;;;;;;3.90;0.90;;;15.10;1.00;;;;;;6181378;23;20675;-28
2023/10/16 01:02:05;;;;;;;5.35;1.13;;;15.10;1.00;;;;;;6155817;23;20265;-28
2023/10/16 01:04:31;;;;;;;3.35;0.95;;;15.00;1.00;;;;;;6182832;23;20191;-28
2023/10/16 01:06:57;;;;;;;5.57;0.88;;;15.00;1.00;;;;;;6182504;23;20404;-29
2023/10/16 01:09:25;;;;;;;3.88;1.10;;;14.90;1.00;;;;;;6180933;23;20489;-28
2023/10/16 01:11:52;;;;;;;4.13;1.17;;;15.70;1.00;;;;;;6180783;23;20017;-31
2023/10/16 01:14:18;;;;;;;5.35;1.10;;;;;;;;;;6182368;23;20031;-28
2023/10/16 01:16:46;;;;;;;4.22;0.93;;;15.10;1.00;;;;;;6182257;23;20552;-29
2023/10/16 01:19:14;;;;;;;5.43;1.13;;;14.90;1.00;;;;;;6181790;23;20039;-29
2023/10/16 01:21:39;;;;;;;5.68;1.13;;;14.80;1.00;;;;;;6155342;23;20084;-28
2023/10/16 01:24:12;;;;;;;4.45;1.00;;;14.90;1.00;;;;;;6183827;23;20111;-28
2023/10/16 01:26:40;;;;;;;5.28;1.20;;;;;;;;;;6184393;23;20013;-28
2023/10/16 01:29:07;;;;;;;5.57;1.20;;;14.80;1.00;;;;;;6183662;23;20016;-30
2023/10/16 01:31:37;;;;;;;4.72;1.55;;;15.10;1.00;;;;;;6157339;23;20017;-28
2023/10/16 01:34:04;;;;;;;7.38;1.63;;;15.30;1.00;;;;;;6183567;23;20013;-29
2023/10/16 01:36:33;;;;;;;5.63;1.40;;;;;;;;;;6157457;23;20017;-28
2023/10/16 01:39:04;;;;;;;9.93;1.40;;;15.00;1.00;;;;;;6184035;23;20026;-30
2023/10/16 01:41:30;;;;;;;4.50;1.42;;;15.00;1.00;;;;;;6182434;23;20021;-29
2023/10/16 01:43:58;;;;;;;4.18;1.10;;;15.00;1.00;;;;;;6183276;23;20089;-29
2023/10/16 01:46:26;;;;;;;5.88;1.20;;;15.10;1.00;;;;;;6183488;23;20016;-28
2023/10/16 01:48:51;;;;;;;5.63;1.08;;;15.00;1.00;;;;;;6155392;23;20013;-28
2023/10/16 01:51:20;;;;;;;4.03;1.10;;;14.70;1.00;;;;;;6155964;23;20092;-29
2023/10/16 01:53:52;;;;;;;3.30;0.93;;;14.80;1.00;;;;;;6179093;23;20075;-29
2023/10/16 01:56:21;;;;;;;4.00;1.20;;;14.60;1.00;;;;;;6181975;23;20084;-29
2023/10/16 01:58:49;;;;;;;4.20;1.05;;;;;;;;;;6181115;23;20342;-28
2023/10/16 02:01:19;;;;;;;5.68;1.05;;;;;;;;;;6181980;23;20063;-28
2023/10/16 02:03:46;;;;;;;4.63;1.00;;;;;;;;;;6180200;23;20024;-28
2023/10/16 02:06:12;;;;;;;3.80;1.05;;;;;;;;;;6182025;23;20012;-29
2023/10/16 02:08:39;;;;;;;5.93;1.08;;;15.00;1.00;;;;;;6181952;23;20013;-28
2023/10/16 02:11:06;;;;;;;4.53;1.40;;;15.00;1.00;;;;;;6182408;23;20455;-29
2023/10/16 02:13:35;;;;;;;5.90;1.30;;;14.90;1.00;;;;;;6183655;23;20017;-28
2023/10/16 02:16:02;;;;;;;5.10;1.20;;;14.90;1.00;;;;;;6182767;23;20013;-28
2023/10/16 02:18:36;;;;;;;5.55;1.23;;;15.00;1.00;;;;;;6156586;23;20016;-28
2023/10/16 02:21:02;;;;;;;6.30;1.30;;;15.00;1.00;;;;;;6182704;23;20048;-28
2023/10/16 02:23:30;;;;;;;6.72;1.65;;;14.90;1.00;;;;;;6182330;23;20748;-29
2023/10/16 02:26:01;;;;;;;5.80;1.40;;;14.90;1.00;;;;;;6156939;23;20028;-28
2023/10/16 02:28:26;;;;;;;6.30;1.73;;;15.00;1.00;;;;;;6183610;23;20067;-28
2023/10/16 02:30:53;;;;;;;4.53;1.35;;;;;;;;;;6182428;23;20013;-28
2023/10/16 02:33:26;;;;;;;4.72;1.50;;;14.90;1.00;;;;;;6182365;23;20051;-28
2023/10/16 02:35:53;;;;;;;6.28;1.40;;;15.20;1.00;;;;;;6183297;23;20080;-28
2023/10/16 02:38:28;;;;;;;4.65;1.65;;;14.90;1.00;;;;;;6182764;23;20013;-28
2023/10/16 02:41:00;;;;;;;4.82;1.27;;;;;;;;;;6155878;23;20017;-28
2023/10/16 02:43:27;;;;;;;5.25;1.40;;;14.70;1.00;;;;;;6182825;23;20546;-27
2023/10/16 02:45:53;;;;;;;5.28;1.40;;;15.00;1.00;;;;;;6183358;23;20009;-28
2023/10/16 02:48:20;;;;;;;5.75;1.23;;;15.10;1.00;;;;;;6156889;23;20510;-31
2023/10/16 02:50:59;;;;;;;5.38;1.40;;;14.90;1.00;;;;;;6182838;23;20100;-29
2023/10/16 02:53:29;;;;;;;6.50;1.20;;;14.70;1.00;;;;;;6156789;23;20016;-27
2023/10/16 02:56:05;;;;;;;4.13;1.05;;;14.90;1.00;;;;;;6182803;23;20508;-28
2023/10/16 02:58:32;;;;;;;6.05;1.10;;;;;;;;;;6182987;23;20025;-28
2023/10/16 03:00:59;;;;;;;4.30;1.27;;;;;;;;;;6182462;23;20103;-29
2023/10/16 03:03:27;;;;;;;3.90;1.00;;;;;;;;;;6182477;23;20084;-28
2023/10/16 03:05:58;;;;;;;5.13;1.30;;;14.80;1.00;;;;;;6182870;23;20391;-28
2023/10/16 03:08:30;;;;;;;4.88;1.13;;;14.90;1.00;;;;;;6182295;23;20013;-28
2023/10/16 03:11:04;;;;;;;5.25;1.02;;;15.00;1.00;;;;;;6182593;23;20017;-28
2023/10/16 03:13:35;;;;;;;6.85;1.10;;;14.70;1.00;;;;;;6155871;23;20071;-27
2023/10/16 03:16:17;;;;;;;6.13;1.10;;;15.10;1.00;;;;;;6156368;23;20124;-28
2023/10/16 03:18:44;;;;;;;10.02;1.35;;;14.90;1.00;;;;;;6155753;23;20017;-28
2023/10/16 03:21:27;;;;;;;6.13;1.00;;;14.80;1.00;;;;;;6155798;23;20394;-28
2023/10/16 03:23:52;;;;;;;4.43;1.13;;;14.70;1.00;;;;;;6183016;23;20017;-28
2023/10/16 03:26:28;;;;;;;4.15;1.08;;;;;;;;;;6182800;23;20063;-28
2023/10/16 03:29:00;;;;;;;6.40;1.05;;;15.00;1.00;;;;;;6182944;23;20009;-28
2023/10/16 03:31:27;;;;;;;4.38;1.48;;;15.10;1.00;;;;;;6179096;23;20077;-28
2023/10/16 03:33:54;;;;;;;3.55;0.90;;;14.90;1.00;;;;;;6182929;23;20047;-28
2023/10/16 03:36:21;;;;;;;4.72;0.80;;;14.80;1.00;;;;;;6155851;23;20488;-28
2023/10/16 03:38:49;;;;;;;3.63;0.98;;;14.90;1.00;;;;;;6155811;23;20423;-29
2023/10/16 03:41:28;;;;;;;4.72;1.10;;;14.90;1.00;;;;;;6181679;23;20017;-29
2023/10/16 03:44:05;;;;;;;6.32;1.52;;;;;;;;;;6182779;23;20013;-28
2023/10/16 03:46:31;;;;;;;5.53;1.17;;;14.30;1.00;;;;;;6156463;23;20045;-28
2023/10/16 03:48:57;;;;;;;4.32;1.00;;;14.90;1.00;;;;;;6183031;23;20016;-29
2023/10/16 03:51:23;;;;;;;4.38;1.15;;;14.90;1.00;;;;;;6156236;23;20017;-28
2023/10/16 03:53:52;;;;;;;3.25;0.90;;;14.70;1.00;;;;;;6152133;23;20024;-28
2023/10/16 03:56:18;;;;;;;4.65;1.15;;;15.20;1.00;;;;;;6182012;23;20005;-28
2023/10/16 03:58:44;;;;;;;6.30;1.58;;;15.00;1.00;;;;;;6153809;23;20013;-28
2023/10/16 04:01:11;;;;;;;6.15;1.50;;;14.80;1.00;;;;;;6154477;23;20018;-28
2023/10/16 04:03:47;;;;;;;3.22;0.82;;;15.00;1.00;;;;;;6179253;23;20017;-28
2023/10/16 04:06:20;;;;;;;4.15;0.98;;;14.80;1.00;;;;;;6156429;23;20387;-28
2023/10/16 04:08:49;;;;;;;6.60;1.15;;;14.60;1.00;;;;;;6182570;23;20016;-29
2023/10/16 04:11:16;;;;;;;5.13;0.90;;;14.80;1.00;;;;;;6182393;23;20012;-28
2023/10/16 04:13:47;;;;;;;4.05;0.80;;;;;;;;;;6182310;23;20009;-28
2023/10/16 04:16:28;;;;;;;2.50;0.85;;;;;;;;;;6182307;23;20009;-30
2023/10/16 04:18:56;;;;;;;3.97;0.93;;;14.80;1.00;;;;;;6182123;23;20084;-28
2023/10/16 04:24:30;;;;;;;5.65;1.20;;;14.60;1.00;;;;;;6181728;23;20056;-28
2023/10/16 04:29:46;;;;;;;6.65;1.10;;;14.70;1.00;;;;;;6180992;23;20076;-28
2023/10/16 04:37:49;;;;;;;7.45;1.40;;;14.80;1.00;;;;;;6181608;23;20485;-29
2023/10/16 04:42:50;;;;;;;9.77;2.40;;;15.20;1.00;;;;;;6181619;23;20529;-28
2023/10/16 05:00:57;;;;;;;13.80;3.03;;;14.80;1.00;;;;;;6181074;23;20052;-28
2023/10/16 05:19:45;;;;;;;10.50;2.00;;;15.40;6.40;;;;;;6184015;23;20021;-28
2023/10/16 06:14:17;;;;;;;6.60;1.40;;;15.00;7.70;;;;;;6177803;23;20021;-28
2023/10/16 06:16:45;;;;;;;8.40;1.60;;;;;;;;;;6151431;23;20013;-28
2023/10/16 06:19:14;;;;;;;4.88;1.40;;;14.80;7.70;;;;;;6151482;23;20041;-28
2023/10/16 06:21:47;;;;;;;6.60;1.50;;;15.10;1.00;;;;;;6150534;23;20024;-29
2023/10/16 06:27:18;;;;;;;6.22;1.40;;;;;;;;;;6151105;23;20075;-28
2023/10/16 06:29:51;;;;;;;7.38;1.42;;;;;;;;;;6149910;23;20017;-27
2023/10/16 06:32:25;;;;;;;6.68;1.70;;;14.60;1.00;;;;;;6177012;23;20120;-28
2023/10/16 06:35:01;;;;;;;8.27;1.80;;;;;;;;;;6177663;23;20176;-27
2023/10/16 06:37:33;;;;;;;6.93;1.60;;;;;;;;;;6152573;23;20065;-28
2023/10/16 06:40:01;;;;;;;5.40;1.63;;;;;;;;;;6177875;23;20477;-28
2023/10/16 06:42:30;;;;;;;6.15;1.83;;;;;;;;;;6152668;23;20060;-29
2023/10/16 06:45:04;;;;;;;8.68;1.70;;;;;;;;;;6168182;23;20056;-28
2023/10/16 06:47:47;;;;;;;7.40;1.35;;;;;;;;;;6172482;23;20017;-30
2023/10/16 06:52:52;;;;;;;6.57;1.75;;;14.80;13.40;;;;;;6177990;23;20084;-29
2023/10/16 06:55:18;;;;;;;5.75;1.35;;;14.90;15.10;;;;;;6151934;23;20048;-28
2023/10/16 06:57:44;;;;;;;8.02;1.80;;;14.90;8.70;;;;;;6177696;23;20009;-27
2023/10/16 07:00:22;;;;;;;5.55;1.50;;;14.80;11.40;;;;;;6177015;23;20009;-27
2023/10/16 07:02:54;;;;;;;10.98;1.95;;;14.90;14.10;;;;;;6150807;23;20518;-27
2023/10/16 07:05:22;;;;;;;6.10;1.52;;;;;;;;;;6178556;23;20060;-27
2023/10/16 07:07:53;;;;;;;6.78;1.60;;;14.80;14.50;;;;;;6150933;23;20043;-28
2023/10/16 07:10:19;;;;;;;5.38;1.50;;;;;;;;;;6177659;23;20045;-27
2023/10/16 07:13:02;;;;;;;5.97;1.70;;;14.90;12.10;;;;;;6178048;23;20068;-29
2023/10/16 07:15:29;;;;;;;7.90;1.92;;;;;;;;;;6177977;23;20009;-28
2023/10/16 07:18:04;;;;;;;6.55;2.05;;;;;;;;;;6178374;23;20013;-28
2023/10/16 07:20:31;;;;;;;5.85;1.60;;;14.80;3.60;;;;;;6152826;23;20013;-28
2023/10/16 07:22:59;;;;;;;9.25;2.08;;;14.80;2.30;;;;;;6178060;23;20013;-28
2023/10/16 07:25:37;;;;;;;7.93;1.88;;;14.80;1.00;;;;;;6178003;23;20091;-27
2023/10/16 07:28:08;;;;;;;5.68;1.73;;;;;;;;;;6177537;23;20096;-27
2023/10/16 07:30:35;;;;;;;6.55;1.80;;;;;;;;;;6150938;23;20021;-28
2023/10/16 07:33:01;;;;;;;4.82;1.40;;;14.70;1.00;;;;;;6177413;23;20071;-27
2023/10/16 07:35:27;;;;;;;6.63;1.80;;;14.80;4.20;;;;;;6178004;23;20402;-28
2023/10/16 07:37:55;;;;;;;11.15;2.20;;;15.50;1.00;;;;;;6177336;23;20013;-28
2023/10/16 07:40:23;;;;;;;5.85;1.85;;;14.90;3.20;;;;;;6177734;23;20017;-29
2023/10/16 07:42:52;;;;;;;6.53;1.80;;;14.90;2.70;;;;;;6177405;23;20415;-28
2023/10/16 07:45:19;;;;;;;6.30;1.83;;;15.00;2.40;;;;;;6150150;23;20100;-27
2023/10/16 07:47:48;;;;;;;7.28;2.55;;;14.80;2.80;;;;;;6180995;23;20059;-28
2023/10/16 07:50:15;;;;;;;10.13;2.25;;;14.90;1.00;;;;;;6156089;23;20101;-28
2023/10/16 07:52:42;;;;;;;8.30;2.00;;;14.90;3.90;;;;;;6179167;23;20020;-28
2023/10/16 07:55:18;;;;;;;6.90;1.88;;;14.80;1.00;;;;;;6181337;23;20048;-28
2023/10/16 07:57:44;;;;;;;5.78;1.70;;;14.90;4.10;;;;;;6157365;23;20315;-29
2023/10/16 08:00:14;;;;;;;7.05;1.90;;;14.90;1.10;;;;;;6130233;23;20088;-28
2023/10/16 08:02:45;;;;;;;5.90;1.70;;;;;;;;;;6181956;23;20027;-28
2023/10/16 08:05:15;;;;;;;6.95;1.90;;;;;;;;;;6181523;23;20024;-29
2023/10/16 08:07:47;;;;;;;6.82;2.22;;;14.90;1.00;;;;;;6156461;23;20017;-27
2023/10/16 08:13:11;;;;;;;7.18;2.75;;;14.60;1.00;;;;;;6182423;23;20430;-28
2023/10/16 08:15:37;;;;;;;6.15;2.00;;;15.10;3.40;;;;;;6182977;23;20020;-28
2023/10/16 08:18:09;;;;;;;5.80;1.92;;;14.80;1.00;;;;;;6132033;23;20136;-28
2023/10/16 08:23:45;;;;;;;7.88;2.15;;;15.60;1.00;;;;;;6183152;23;20017;-28
2023/10/16 08:26:19;;;;;;;7.88;2.00;;;14.70;1.00;;;;;;6181847;23;20052;-28
2023/10/16 08:28:45;;;;;;;6.80;2.33;;;14.80;1.00;;;;;;6156543;23;20017;-28
2023/10/16 08:31:24;;;;;;;6.80;2.05;;;14.80;1.00;;;;;;6182398;23;20060;-28
2023/10/16 08:33:57;;;;;;;11.95;2.10;;;15.70;1.00;;;;;;6182398;23;20538;-28
2023/10/16 08:36:24;;;;;;;8.93;2.15;;;14.80;1.00;;;;;;6183069;23;20020;-27
2023/10/16 08:38:54;;;;;;;6.68;1.95;;;14.60;7.50;;;;;;6183015;23;20009;-28
2023/10/16 08:41:42;;;;;;;6.40;2.03;;;;;;;;;;6182817;23;20020;-27
2023/10/16 08:44:10;;;;;;;7.85;2.08;;;;;;;;;;6183008;23;20013;-30
2023/10/16 08:46:53;;;;;;;7.65;1.90;;;15.00;8.20;;;;;;6183331;23;20017;-28
2023/10/16 08:49:24;;;;;;;7.10;2.05;;;15.80;1.00;;;;;;6156613;23;20088;-27
2023/10/16 08:52:08;;;;;;;5.57;1.73;;;15.60;1.00;;;;;;6182334;23;20013;-27
2023/10/16 08:57:18;;;;;;;6.28;2.15;;;15.10;7.70;;;;;;6182759;23;20023;-27
2023/10/16 08:59:46;;;;;;;6.28;1.83;;;15.20;1.00;;;;;;6156359;23;20450;-27
2023/10/16 09:02:13;;;;;;;7.22;1.92;;;14.70;1.00;;;;;;6182380;23;20060;-28
2023/10/16 09:04:42;;;;;;;6.53;1.77;;;15.40;1.00;;;;;;6156544;23;20084;-28
2023/10/16 09:07:11;;;;;;;10.63;1.92;;;14.70;1.00;;;;;;6182743;23;20021;-29
2023/10/16 09:09:41;;;;;;;7.80;1.70;;;15.00;1.00;;;;;;6156048;23;20017;-28
2023/10/16 09:12:10;;;;;;;6.00;1.58;;;15.90;1.00;;;;;;6182407;23;20394;-28
2023/10/16 09:14:40;;;;;;;5.93;1.73;;;14.80;1.00;;;;;;6182994;23;20020;-28
2023/10/16 09:17:09;;;;;;;5.07;1.35;;;15.10;1.00;;;;;;6182738;23;20121;-28
2023/10/16 09:19:35;;;;;;;7.68;1.90;;;15.10;1.00;;;;;;6182358;23;20009;-28
2023/10/16 09:22:08;;;;;;;6.45;1.60;;;;;;;;;;6181427;23;20538;-28
2023/10/16 09:24:33;;;;;;;7.35;1.90;;;14.70;1.00;;;;;;6156231;23;20109;-28
2023/10/16 09:27:22;;;;;;;6.15;1.70;;;;;;;;;;6182737;23;20466;-28
2023/10/16 09:29:55;;;;;;;6.30;1.50;;;;;;;;;;6182145;23;20525;-27
2023/10/16 09:32:39;;;;;;;8.18;1.80;;;14.90;1.00;;;;;;6182444;23;20020;-27
2023/10/16 09:35:15;;;;;;;5.35;1.67;;;;;;;;;;6155999;23;20013;-27
2023/10/16 09:37:47;;;;;;;6.63;1.88;;;14.70;1.00;;;;;;6181948;23;20051;-28
2023/10/16 09:40:19;;;;;;;4.85;1.50;;;15.70;1.00;;;;;;6182234;23;20017;-27
2023/10/16 09:42:55;;;;;;;7.35;1.60;;;15.20;1.00;;;;;;6182531;23;20248;-28
2023/10/16 09:45:25;;;;;;;6.65;1.90;;;15.20;8.50;;;;;;6184381;23;20020;-28
2023/10/16 09:47:56;;;;;;;6.82;1.60;;;15.20;1.00;;;;;;6157404;23;20075;-28
2023/10/16 09:50:24;;;;;;;7.03;2.47;;;15.00;1.00;;;;;;6183896;23;20178;-28
2023/10/16 09:52:49;;;;;;;8.07;2.05;;;15.10;1.00;;;;;;6157046;23;20059;-29
2023/10/16 09:55:18;;;;;;;7.53;1.80;;;15.10;1.80;;;;;;6157464;23;20009;-28
2023/10/16 09:57:50;;;;;;;5.80;1.98;;;14.80;1.00;;;;;;6184331;23;20024;-28
2023/10/16 10:00:29;;;;;;;6.82;1.98;;;15.20;9.80;;;;;;6184015;23;20016;-27
2023/10/16 10:03:03;;;;;;;6.28;1.85;;;15.00;6.90;;;;;;6183720;23;20016;-27
2023/10/16 10:05:34;;;;;;;9.55;2.58;;;15.30;13.50;;;;;;6183749;23;20403;-28
2023/10/16 10:08:15;;;;;;;8.40;2.10;;;;;;;;;;6183479;23;20017;-28
2023/10/16 10:13:34;;;;;;;6.10;2.15;;;;;;;;;;6184341;23;20466;-28
2023/10/16 10:16:10;;;;;;;6.47;2.40;;;15.50;1.00;;;;;;6157638;23;20021;-28
2023/10/16 10:18:42;;;;;;;10.35;3.35;;;15.30;17.90;;;;;;6184012;23;20510;-29
2023/10/16 10:21:18;;;;;;;7.43;3.28;;;15.40;8.60;;;;;;6157085;23;20089;-28
2023/10/16 10:23:48;;;;;;;6.80;2.75;;;15.10;17.70;;;;;;6184165;23;20040;-29
2023/10/16 10:26:20;;;;;;;6.75;3.03;;;;;;;;;;6183865;23;20009;-28
2023/10/16 10:29:04;;;;;;;6.75;2.63;;;15.50;8.00;;;;;;6184258;23;20324;-28
2023/10/16 10:31:31;;;;;;;9.25;2.65;;;16.00;12.80;;;;;;6183903;23;20048;-28
2023/10/16 10:33:58;;;;;;;6.75;2.70;;;15.80;10.90;;;;;;6183558;23;20067;-28
2023/10/16 10:36:29;;;;;;;6.50;2.83;;;15.40;21.90;;;;;;6157211;23;20024;-29
2023/10/16 10:39:21;;;;;;;6.28;2.97;;;15.10;15.10;;;;;;6157480;23;20044;-28
2023/10/16 10:41:47;;;;;;;8.70;3.33;;;15.40;21.40;;;;;;6183554;23;20013;-29
2023/10/16 10:44:15;;;;;;;9.02;2.72;;;15.10;15.80;;;;;;6183706;23;20445;-28
2023/10/16 10:46:49;;;;;;;7.20;2.65;;;15.70;15.20;;;;;;6183581;23;20017;-29
2023/10/16 10:49:15;;;;;;;6.80;3.05;;;15.60;22.80;;;;;;6183616;23;20080;-28
2023/10/16 10:51:44;;;;;;;6.22;2.50;;;16.20;14.50;;;;;;6183284;23;20057;-28
2023/10/16 10:54:13;;;;;;;6.30;2.90;;;15.20;25.40;;;;;;6183775;23;20016;-28
2023/10/16 10:56:50;;;;;;;7.00;2.50;;;15.90;10.70;;;;;;6157237;23;20095;-28
2023/10/16 10:59:39;;;;;;;6.97;2.95;;;16.10;19.90;;;;;;6156905;23;20049;-28
2023/10/16 11:04:53;;;;;;;5.95;2.13;;;;;;;;;;6157023;23;20027;-28
2023/10/16 11:07:25;;;;;;;7.07;2.50;;;;;;;;;;6183677;23;20055;-29
2023/10/16 11:09:56;;;;;;;6.55;2.72;;;15.80;25.00;;;;;;6183578;23;20060;-28
2023/10/16 11:12:26;;;;;;;7.13;3.30;;;16.10;18.00;;;;;;6183515;23;20039;-28
2023/10/16 11:14:53;;;;;;;6.05;2.38;;;16.30;19.80;;;;;;6183799;23;20012;-30
2023/10/16 11:17:51;;;;;;;6.35;2.72;;;16.20;20.30;;;;;;6156634;23;20020;-29
2023/10/16 11:20:29;;;;;;;7.05;2.08;;;15.40;17.60;;;;;;6165213;23;20478;-29
2023/10/16 11:22:58;;;;;;;6.32;2.40;;;15.20;19.20;;;;;;6183463;23;20013;-28
2023/10/16 11:25:34;;;;;;;8.25;2.45;;;15.50;14.80;;;;;;6183255;23;20009;-28
2023/10/16 11:28:07;;;;;;;6.20;2.28;;;15.70;15.30;;;;;;6183186;23;20013;-29
2023/10/16 11:30:38;;;;;;;5.07;2.20;;;16.30;17.20;;;;;;6156507;23;20060;-28
2023/10/16 11:33:06;;;;;;;6.25;2.30;;;15.70;24.60;;;;;;6162005;23;20474;-28
2023/10/16 11:35:34;;;;;;;6.28;2.70;;;15.10;6.90;;;;;;6183181;23;20454;-28
2023/10/16 11:38:04;;;;;;;5.97;2.05;;;15.90;19.60;;;;;;6183139;23;20059;-28
2023/10/16 11:40:39;;;;;;;6.50;2.47;;;15.70;30.90;;;;;;6181236;23;20021;-28
2023/10/16 11:43:07;;;;;;;5.57;2.08;;;15.10;20.60;;;;;;6183378;23;20057;-28
2023/10/16 11:45:33;;;;;;;6.25;2.10;;;16.20;22.00;;;;;;6183310;23;20359;-28
2023/10/16 11:50:51;;;;;;;6.28;1.80;;;15.70;25.50;;;;;;6182772;23;20528;-28
2023/10/16 11:53:23;;;;;;;5.28;1.75;;;15.80;19.00;;;;;;6183108;23;20009;-28
2023/10/16 11:55:50;;;;;;;6.38;2.22;;;15.70;29.20;;;;;;6182969;23;20458;-27
2023/10/16 11:58:16;;;;;;;6.30;2.08;;;16.40;19.80;;;;;;6183153;23;20390;-30
2023/10/16 12:00:53;;;;;;;6.00;2.08;;;15.70;17.10;;;;;;6182694;23;20023;-28
2023/10/16 12:03:19;;;;;;;5.15;1.95;;;16.30;20.80;;;;;;6181244;23;20455;-28
2023/10/16 12:05:45;;;;;;;4.43;1.73;;;15.80;21.10;;;;;;6182707;23;20486;-28
2023/10/16 12:08:10;;;;;;;6.45;2.33;;;16.40;22.40;;;;;;6183261;23;20009;-28
2023/10/16 12:10:36;;;;;;;4.50;1.77;;;16.10;23.10;;;;;;6182762;23;20453;-27
2023/10/16 12:13:03;;;;;;;4.18;1.60;;;15.70;29.10;;;;;;6183114;23;20052;-29
2023/10/16 12:15:29;;;;;;;5.82;1.85;;;16.30;23.30;;;;;;6182944;23;20016;-28
2023/10/16 12:17:55;;;;;;;5.07;2.03;;;15.10;23.30;;;;;;6183094;23;20009;-28
2023/10/16 12:20:26;;;;;;;4.95;1.88;;;16.00;24.50;;;;;;6181037;23;20091;-28
2023/10/16 12:22:52;;;;;;;5.43;1.90;;;15.60;34.60;;;;;;6182881;23;20013;-28
2023/10/16 12:25:18;;;;;;;4.90;1.50;;;15.30;25.50;;;;;;6181280;23;20057;-28
2023/10/16 12:27:45;;;;;;;5.15;1.92;;;16.30;26.50;;;;;;6183125;23;20044;-30
2023/10/16 12:30:15;;;;;;;4.97;1.58;;;15.20;26.20;;;;;;6182766;23;20013;-28
2023/10/16 12:32:40;;;;;;;4.60;1.77;;;15.20;27.00;;;;;;6182530;23;20067;-28
2023/10/16 12:35:11;;;;;;;5.43;1.60;;;16.50;27.80;;;;;;6183069;23;20021;-28
2023/10/16 12:37:38;;;;;;;6.43;1.50;;;15.50;27.80;;;;;;6183012;23;20016;-28
2023/10/16 12:42:49;;;;;;;4.10;1.65;;;16.40;28.40;;;;;;6182669;23;20021;-28
2023/10/16 12:45:14;;;;;;;5.75;1.67;;;16.30;29.00;;;;;;6182955;23;20063;-28
2023/10/16 12:47:40;;;;;;;5.40;1.63;;;16.30;31.10;;;;;;6156039;23;20017;-29
2023/10/16 12:50:07;;;;;;;4.30;1.45;;;15.50;43.90;;;;;;6182585;23;20360;-28
2023/10/16 12:52:33;;;;;;;7.65;1.60;;;16.40;30.40;;;;;;6156150;23;20091;-28
2023/10/16 12:55:01;;;;;;;4.93;1.65;;;16.20;32.80;;;;;;6182943;23;20017;-28
2023/10/16 12:57:28;;;;;;;3.53;1.25;;;15.90;44.40;;;;;;6182991;23;20049;-30
2023/10/16 12:59:56;;;;;;;4.20;1.60;;;15.40;32.70;;;;;;6182431;23;20017;-28
2023/10/16 13:02:28;;;;;;;3.95;1.30;;;15.20;34.40;;;;;;6182666;23;20021;-28
2023/10/16 13:04:55;;;;;;;4.60;1.58;;;16.20;35.70;;;;;;6182998;23;20044;-28
2023/10/16 13:07:24;;;;;;;4.85;1.48;;;15.40;36.20;;;;;;6155921;23;20075;-28
2023/10/16 13:09:53;;;;;;;7.03;2.08;;;16.40;35.00;;;;;;6182746;23;20014;-28
2023/10/16 13:12:21;;;;;;;4.35;1.48;;;15.40;36.10;;;;;;6182195;23;20020;-28
2023/10/16 13:14:49;;;;;;;4.70;1.85;;;16.40;34.40;;;;;;6182729;23;20009;-29
2023/10/16 13:17:15;;;;;;;5.25;1.70;;;15.40;35.50;;;;;;6156223;23;20020;-28
2023/10/16 13:19:40;;;;;;;5.50;1.70;;;16.00;37.40;;;;;;6157532;23;20009;-28
2023/10/16 13:22:10;;;;;;;6.07;1.65;;;15.90;49.90;;;;;;6184276;23;20024;-28
2023/10/16 13:24:37;;;;;;;6.53;1.58;;;16.60;37.30;;;;;;6158420;23;20017;-28
2023/10/16 13:27:05;;;;;;;4.57;1.48;;;15.30;37.90;;;;;;6184813;23;20017;-28
2023/10/16 13:29:30;;;;;;;4.50;1.35;;;16.10;38.70;;;;;;6157586;23;20021;-28
2023/10/16 13:32:00;;;;;;;3.60;1.20;;;15.50;38.60;;;;;;6184381;23;20104;-29
2023/10/16 13:34:26;;;;;;;4.13;1.42;;;15.60;38.00;;;;;;6180143;23;20084;-28
2023/10/16 13:37:07;;;;;;;6.00;1.48;;;16.60;37.30;;;;;;6184628;23;20005;-28
2023/10/16 13:39:35;;;;;;;5.22;1.58;;;16.00;39.50;;;;;;6182613;23;20404;-28
2023/10/16 13:42:07;;;;;;;8.68;1.67;;;16.70;39.70;;;;;;6183881;23;20094;-28
2023/10/16 13:44:35;;;;;;;6.07;1.40;;;15.60;36.70;;;;;;6184889;23;20017;-27
2023/10/16 13:47:05;;;;;;;5.63;1.35;;;16.50;34.80;;;;;;6184434;23;20013;-29
2023/10/16 13:49:31;;;;;;;5.07;1.33;;;15.80;34.80;;;;;;6184583;23;20020;-27
2023/10/16 13:51:58;;;;;;;5.03;1.40;;;16.30;37.10;;;;;;6183726;23;20479;-28
2023/10/16 13:54:24;;;;;;;5.05;1.40;;;15.50;34.30;;;;;;6182673;23;20343;-28
2023/10/16 13:56:50;;;;;;;4.40;1.52;;;15.60;34.50;;;;;;6183091;23;20011;-28
2023/10/16 13:59:18;;;;;;;5.43;1.40;;;15.80;36.00;;;;;;6184354;23;20009;-27
2023/10/16 14:01:45;;;;;;;5.53;1.75;;;;;;;;;;6182057;23;20028;-28
2023/10/16 14:04:21;;;;;;;5.15;1.40;;;15.70;35.70;;;;;;6184421;23;20479;-30
2023/10/16 14:06:51;;;;;;;4.45;1.20;;;16.40;36.40;;;;;;6182523;23;20100;-28
2023/10/16 14:09:32;;;;;;;5.10;1.40;;;15.50;30.20;;;;;;6184321;23;20080;-28
2023/10/16 14:11:59;;;;;;;5.43;1.70;;;15.40;35.30;;;;;;6182047;23;20013;-28
2023/10/16 14:14:29;;;;;;;5.13;1.40;;;16.60;34.70;;;;;;6184318;23;20009;-29
2023/10/16 14:17:03;;;;;;;5.03;1.60;;;15.80;35.90;;;;;;6184570;23;20009;-28
2023/10/16 14:19:29;;;;;;;4.78;1.40;;;16.60;39.00;;;;;;6184022;23;20035;-28
2023/10/16 14:21:57;;;;;;;5.35;1.30;;;16.50;38.60;;;;;;6183897;23;20009;-28
2023/10/16 14:24:24;;;;;;;4.55;1.45;;;15.70;37.80;;;;;;6182246;23;20013;-29
2023/10/16 14:26:54;;;;;;;5.30;1.55;;;16.80;43.90;;;;;;6183986;23;20082;-28
2023/10/16 14:29:24;;;;;;;3.85;1.42;;;16.70;39.60;;;;;;6181734;23;20021;-29
2023/10/16 14:31:51;;;;;;;4.75;1.20;;;15.70;37.80;;;;;;6182918;23;20023;-28
2023/10/16 14:34:22;;;;;;;5.13;1.33;;;16.10;36.20;;;;;;6183756;23;20044;-28
2023/10/16 14:36:50;;;;;;;5.95;1.20;;;16.30;36.10;;;;;;6183550;23;20013;-28
2023/10/16 14:39:17;;;;;;;5.65;1.60;;;16.40;35.50;;;;;;6157022;23;20021;-29
2023/10/16 14:41:44;;;;;;;4.65;1.40;;;16.70;32.90;;;;;;6183681;23;20096;-28
2023/10/16 14:44:12;;;;;;;4.65;1.20;;;15.50;29.00;;;;;;6157206;23;20024;-28
2023/10/16 14:46:39;;;;;;;5.15;1.20;;;16.50;27.40;;;;;;6183397;23;20009;-28
2023/10/16 14:49:08;;;;;;;8.13;1.52;;;16.00;25.30;;;;;;6183540;23;20017;-28
2023/10/16 14:51:37;;;;;;;5.75;1.60;;;16.00;23.60;;;;;;6183165;23;20342;-28
2023/10/16 14:54:07;;;;;;;4.95;1.38;;;16.30;21.00;;;;;;6182578;23;20481;-28
2023/10/16 14:56:36;;;;;;;6.40;1.20;;;16.40;19.90;;;;;;6155144;23;20336;-28
2023/10/16 14:59:22;;;;;;;8.38;1.83;;;;;;;;;;6182268;23;20075;-27
2023/10/16 15:01:50;;;;;;;5.72;1.42;;;16.00;17.50;;;;;;6155472;23;20071;-28
2023/10/16 15:04:17;;;;;;;7.82;1.45;;;16.60;14.60;;;;;;6183340;23;20017;-28
2023/10/16 15:06:44;;;;;;;4.40;1.20;;;16.60;13.80;;;;;;6176000;23;20083;-28
2023/10/16 15:09:15;;;;;;;3.60;1.15;;;14.80;10.30;;;;;;6177409;23;20013;-29
2023/10/16 15:11:43;;;;;;;3.92;1.25;;;16.40;10.50;;;;;;6178006;23;20083;-28
2023/10/16 15:14:11;;;;;;;4.00;1.30;;;16.60;9.90;;;;;;6151735;23;20019;-28
2023/10/16 15:16:38;;;;;;;3.63;1.23;;;15.90;10.00;;;;;;6178131;23;20009;-27
2023/10/16 15:19:07;;;;;;;5.10;1.55;;;15.60;8.60;;;;;;6178219;23;20017;-28
2023/10/16 15:21:38;;;;;;;6.38;1.95;;;15.80;6.70;;;;;;6177659;23;20017;-29
2023/10/16 15:24:04;;;;;;;5.03;1.30;;;16.90;6.10;;;;;;6177450;23;20028;-31
2023/10/16 15:26:33;;;;;;;5.50;1.40;;;15.60;5.00;;;;;;6151265;23;20028;-29